Time;durP1;ratioP1;P1;durP2;ratioP2;P2;SDS_P1;SDS_P2;PMS_P1;PMS_P2;Temp;Humidity;BMP_temperature;BMP_pressure;BME280_temperature;BME280_humidity;BME280_pressure;Samples;Min_cycle;Max_cycle;Signal;HPM_P1;HPM_P2
2021/11/25 00:00:10;;;;;;;15.13;10.18;;;22.60;83.40;;;;;;1908526;74;21131;-80
2021/11/25 00:02:41;;;;;;;12.10;9.50;;;22.60;83.00;;;;;;1898374;74;21167;-80
2021/11/25 00:05:13;;;;;;;13.78;10.20;;;22.60;82.90;;;;;;1908789;74;21518;-70
2021/11/25 00:07:44;;;;;;;13.55;11.08;;;22.70;82.60;;;;;;1901154;74;21105;-71
2021/11/25 00:10:15;;;;;;;20.30;12.10;;;22.70;82.50;;;;;;1898054;74;21148;-72
2021/11/25 00:12:46;;;;;;;12.37;10.13;;;22.80;82.30;;;;;;1870183;75;21707;-73
2021/11/25 00:15:17;;;;;;;12.90;9.65;;;22.80;81.90;;;;;;1858045;75;21124;-72
2021/11/25 00:17:48;;;;;;;14.13;9.60;;;22.70;81.70;;;;;;1837143;75;21659;-70
2021/11/25 00:20:20;;;;;;;17.27;10.20;;;22.80;81.90;;;;;;1842156;76;21166;-70
2021/11/25 00:22:51;;;;;;;14.13;10.03;;;22.80;81.50;;;;;;1892849;74;21142;-70
2021/11/25 00:25:22;;;;;;;14.63;10.10;;;22.80;81.30;;;;;;1947689;72;21777;-71
2021/11/25 00:27:53;;;;;;;14.00;9.33;;;22.90;81.20;;;;;;1944060;72;21113;-71
2021/11/25 00:30:24;;;;;;;14.45;9.78;;;22.90;80.60;;;;;;1947097;72;21116;-70
2021/11/25 00:32:54;;;;;;;14.10;9.60;;;22.90;80.00;;;;;;1947411;72;21191;-70
2021/11/25 00:35:25;;;;;;;19.40;9.40;;;22.80;80.00;;;;;;1946675;72;21148;-70
2021/11/25 00:37:56;;;;;;;13.95;8.70;;;22.80;80.50;;;;;;1954302;72;21137;-70
2021/11/25 00:40:27;;;;;;;11.48;8.78;;;22.80;80.80;;;;;;1948885;72;21686;-70
2021/11/25 00:42:57;;;;;;;11.22;7.97;;;22.80;80.60;;;;;;1953447;72;21524;-70
2021/11/25 00:45:28;;;;;;;15.13;8.95;;;22.80;80.20;;;;;;1959265;72;21642;-69
2021/11/25 00:47:58;;;;;;;16.30;9.78;;;22.80;80.50;;;;;;1945376;72;21582;-70
2021/11/25 00:50:29;;;;;;;13.20;10.08;;;22.80;80.90;;;;;;1945142;72;22462;-70
2021/11/25 00:53:00;;;;;;;13.95;9.90;;;22.90;81.00;;;;;;1940502;72;21131;-70
2021/11/25 00:55:31;;;;;;;14.83;9.85;;;22.90;80.10;;;;;;1950816;72;21069;-71
2021/11/25 00:58:02;;;;;;;12.33;9.18;;;22.90;80.30;;;;;;1954157;72;21194;-70
2021/11/25 01:00:32;;;;;;;15.35;8.83;;;23.00;80.90;;;;;;1952313;72;21199;-70
2021/11/25 01:03:04;;;;;;;12.18;8.00;;;23.00;80.40;;;;;;1951410;72;21097;-70
2021/11/25 01:05:35;;;;;;;11.12;7.80;;;23.00;78.70;;;;;;1950418;72;21805;-71
2021/11/25 01:08:06;;;;;;;11.73;7.87;;;23.00;78.10;;;;;;1950874;72;21167;-71
2021/11/25 01:10:37;;;;;;;10.50;8.03;;;23.00;77.60;;;;;;1947976;72;21570;-70
2021/11/25 01:13:08;;;;;;;12.68;7.17;;;23.00;77.60;;;;;;1939555;72;21155;-70
2021/11/25 01:15:41;;;;;;;10.58;7.78;;;23.00;77.90;;;;;;1947931;72;21145;-71
2021/11/25 01:18:14;;;;;;;11.65;7.17;;;23.10;78.00;;;;;;1945496;72;21516;-68
2021/11/25 01:21:06;;;;;;;11.68;7.55;;;23.20;77.80;;;;;;1941073;72;21179;-69
2021/11/25 01:23:39;;;;;;;12.33;8.00;;;23.20;78.00;;;;;;1892195;74;21540;-70
2021/11/25 01:26:09;;;;;;;10.85;7.25;;;23.20;77.80;;;;;;1847291;76;21154;-70
2021/11/25 01:28:40;;;;;;;11.57;7.58;;;23.30;77.70;;;;;;1891776;74;21191;-70
2021/11/25 01:31:11;;;;;;;13.00;7.87;;;23.30;78.00;;;;;;1868040;75;21170;-70
2021/11/25 01:33:46;;;;;;;10.90;7.75;;;23.40;78.10;;;;;;1867193;75;21102;-69
2021/11/25 01:36:14;;;;;;;10.75;7.58;;;23.40;78.00;;;;;;1859114;76;21812;-70
2021/11/25 01:38:45;;;;;;;9.40;7.53;;;23.40;77.90;;;;;;1891470;74;21793;-70
2021/11/25 01:41:17;;;;;;;12.95;8.03;;;23.50;78.10;;;;;;1888366;74;21705;-70
2021/11/25 01:43:48;;;;;;;9.35;7.47;;;23.50;77.50;;;;;;1885668;74;21186;-69
2021/11/25 01:46:25;;;;;;;11.25;6.85;;;23.60;77.20;;;;;;1895299;74;21138;-70
2021/11/25 01:48:53;;;;;;;10.03;7.35;;;23.60;76.90;;;;;;1887603;74;21229;-69
2021/11/25 01:51:24;;;;;;;9.18;6.62;;;23.70;76.80;;;;;;1888326;74;22188;-70
2021/11/25 01:53:55;;;;;;;9.63;7.08;;;23.80;76.50;;;;;;1896923;74;21054;-73
2021/11/25 01:56:26;;;;;;;9.63;6.97;;;23.90;76.20;;;;;;1851278;76;21178;-70
2021/11/25 01:59:03;;;;;;;8.85;6.72;;;23.90;75.90;;;;;;1888245;74;21131;-71
2021/11/25 02:01:35;;;;;;;9.63;6.70;;;24.00;75.60;;;;;;1887494;74;21603;-70
2021/11/25 02:04:06;;;;;;;9.58;6.85;;;24.00;75.10;;;;;;1887164;74;21166;-70
2021/11/25 02:06:39;;;;;;;10.10;7.90;;;24.00;75.00;;;;;;1892881;74;21200;-71
2021/11/25 02:09:11;;;;;;;11.12;7.10;;;24.10;75.20;;;;;;1886752;74;21167;-70
2021/11/25 02:11:42;;;;;;;8.83;6.87;;;24.10;75.20;;;;;;1885304;74;21187;-70
2021/11/25 02:14:12;;;;;;;10.98;6.50;;;24.10;74.50;;;;;;1893386;73;21135;-70
2021/11/25 02:16:45;;;;;;;9.23;6.47;;;24.20;73.70;;;;;;1895958;74;21073;-71
2021/11/25 02:19:16;;;;;;;12.55;7.10;;;24.20;73.90;;;;;;1852403;75;21167;-71
2021/11/25 02:21:47;;;;;;;10.35;6.55;;;24.20;74.40;;;;;;1848191;76;21911;-71
2021/11/25 02:24:18;;;;;;;10.75;7.22;;;24.30;74.40;;;;;;1824938;76;21130;-71
2021/11/25 02:26:49;;;;;;;13.15;7.72;;;24.30;73.80;;;;;;1826618;77;21227;-71
2021/11/25 02:29:19;;;;;;;9.53;8.38;;;24.40;74.10;;;;;;1825293;77;21790;-71
2021/11/25 02:31:51;;;;;;;10.43;7.75;;;24.40;74.10;;;;;;1824200;77;21065;-71
2021/11/25 02:34:22;;;;;;;10.40;7.20;;;24.40;73.80;;;;;;1822980;77;21288;-71
2021/11/25 02:36:53;;;;;;;10.43;6.87;;;24.50;74.00;;;;;;1856277;76;21182;-70
2021/11/25 02:39:24;;;;;;;12.00;6.67;;;24.60;73.80;;;;;;1815281;78;21330;-71
2021/11/25 02:41:55;;;;;;;9.05;7.25;;;24.60;73.40;;;;;;1820388;77;21110;-72
2021/11/25 02:44:25;;;;;;;7.55;6.35;;;24.70;73.70;;;;;;1865835;75;21284;-70
2021/11/25 02:47:00;;;;;;;9.85;6.90;;;24.70;73.50;;;;;;1851656;76;21178;-69
2021/11/25 02:49:31;;;;;;;10.08;6.97;;;24.70;73.40;;;;;;1855274;76;21166;-70
2021/11/25 02:52:02;;;;;;;9.18;6.58;;;24.80;72.80;;;;;;1860392;76;21126;-71
2021/11/25 02:54:33;;;;;;;7.17;6.05;;;24.80;72.70;;;;;;1814707;78;22084;-71
2021/11/25 02:57:04;;;;;;;8.23;6.10;;;24.80;72.50;;;;;;1814937;78;21757;-72
2021/11/25 02:59:35;;;;;;;8.58;6.55;;;24.90;72.50;;;;;;1812795;78;21626;-71
2021/11/25 03:02:05;;;;;;;8.25;5.72;;;25.00;71.90;;;;;;1812982;78;21143;-71
2021/11/25 03:04:37;;;;;;;7.58;5.70;;;25.00;72.00;;;;;;1851586;76;21149;-71
2021/11/25 03:07:08;;;;;;;11.22;5.78;;;25.10;71.40;;;;;;1789762;78;21272;-70
2021/11/25 03:09:39;;;;;;;9.70;5.97;;;25.20;71.50;;;;;;1844181;77;21617;-71
2021/11/25 03:12:10;;;;;;;6.42;5.50;;;25.30;71.20;;;;;;1862896;75;21059;-71
2021/11/25 03:14:43;;;;;;;7.25;5.65;;;25.30;70.90;;;;;;1865100;75;21253;-72
2021/11/25 03:17:13;;;;;;;9.93;6.10;;;25.40;70.80;;;;;;1859241;75;21193;-71
2021/11/25 03:19:44;;;;;;;9.73;5.65;;;25.50;70.70;;;;;;1864877;75;21245;-71
2021/11/25 03:22:16;;;;;;;7.35;6.12;;;25.50;70.40;;;;;;1857911;75;21176;-71
2021/11/25 03:24:46;;;;;;;8.30;5.87;;;25.50;70.40;;;;;;1905631;74;21514;-72
2021/11/25 03:27:19;;;;;;;7.87;5.78;;;25.70;70.60;;;;;;1919136;73;21540;-70
2021/11/25 03:29:49;;;;;;;9.48;6.08;;;25.70;70.30;;;;;;1851456;76;21245;-70
2021/11/25 03:32:22;;;;;;;7.60;6.08;;;25.90;70.00;;;;;;1888785;74;21091;-70
2021/11/25 03:34:55;;;;;;;9.25;5.75;;;26.00;70.10;;;;;;1855639;76;21170;-72
2021/11/25 03:37:25;;;;;;;6.85;5.67;;;26.10;69.50;;;;;;1858616;76;21108;-71
2021/11/25 03:39:56;;;;;;;9.13;5.50;;;26.20;69.40;;;;;;1861921;76;21192;-71
2021/11/25 03:42:27;;;;;;;7.90;6.28;;;26.20;69.10;;;;;;1849826;76;21196;-72
2021/11/25 03:44:58;;;;;;;10.30;6.42;;;26.30;69.10;;;;;;1857490;76;21158;-71
2021/11/25 03:47:29;;;;;;;7.95;6.45;;;26.40;68.70;;;;;;1863899;76;21171;-71
2021/11/25 03:49:59;;;;;;;11.95;7.37;;;26.50;68.70;;;;;;1844853;76;21190;-70
2021/11/25 03:52:30;;;;;;;9.85;6.62;;;26.60;68.30;;;;;;1858947;76;21903;-70
2021/11/25 03:55:04;;;;;;;11.15;7.03;;;26.70;67.80;;;;;;1855630;76;21151;-71
2021/11/25 03:57:40;;;;;;;9.13;6.20;;;26.80;67.40;;;;;;1857594;76;21194;-71
2021/11/25 04:00:09;;;;;;;7.28;5.40;;;26.90;67.10;;;;;;1872036;75;21119;-71
2021/11/25 04:02:41;;;;;;;9.98;5.85;;;26.90;67.50;;;;;;1856874;76;21124;-72
2021/11/25 04:05:13;;;;;;;7.85;5.40;;;27.10;66.50;;;;;;1863470;76;21155;-70
2021/11/25 04:07:44;;;;;;;7.53;5.58;;;27.10;66.30;;;;;;1854306;76;21158;-70
2021/11/25 04:10:17;;;;;;;9.70;5.95;;;27.20;65.80;;;;;;1847988;75;21676;-71
2021/11/25 04:12:48;;;;;;;11.90;6.47;;;27.30;65.80;;;;;;1851105;76;21129;-70
2021/11/25 04:15:19;;;;;;;7.85;5.90;;;27.30;65.40;;;;;;1843326;76;21616;-71
2021/11/25 04:17:51;;;;;;;10.88;6.05;;;27.40;65.40;;;;;;1853378;76;21115;-70
2021/11/25 04:20:22;;;;;;;8.23;5.72;;;27.40;65.30;;;;;;1912712;73;21107;-70
2021/11/25 04:22:52;;;;;;;6.65;5.20;;;27.50;64.90;;;;;;1904047;73;21134;-70
2021/11/25 04:25:26;;;;;;;9.45;6.30;;;27.60;64.80;;;;;;1914022;73;21275;-72
2021/11/25 04:27:57;;;;;;;8.88;5.42;;;27.70;64.90;;;;;;1921314;73;21629;-70
2021/11/25 04:30:53;;;;;;;6.58;4.80;;;27.80;64.40;;;;;;1914240;73;21154;-71
2021/11/25 04:35:51;;;;;;;5.97;4.70;;;28.00;63.40;;;;;;1926173;73;21138;-72
2021/11/25 04:38:26;;;;;;;6.65;4.72;;;28.10;62.80;;;;;;1814951;78;21096;-72
2021/11/25 04:40:59;;;;;;;7.33;4.67;;;28.20;62.50;;;;;;1812561;78;21179;-72
2021/11/25 04:43:50;;;;;;;7.90;4.87;;;28.40;62.20;;;;;;1819123;78;21120;-71
2021/11/25 04:46:21;;;;;;;8.38;4.80;;;28.50;61.90;;;;;;1866039;76;21750;-72
2021/11/25 04:48:52;;;;;;;7.08;4.90;;;28.60;62.10;;;;;;1813198;77;21227;-69
2021/11/25 04:51:23;;;;;;;6.65;4.67;;;28.70;62.00;;;;;;1863138;76;21138;-70
2021/11/25 04:53:56;;;;;;;9.68;4.72;;;28.70;62.00;;;;;;1801739;78;21269;-71
2021/11/25 04:56:27;;;;;;;9.10;5.08;;;28.80;61.10;;;;;;1820185;77;21280;-71
2021/11/25 04:58:57;;;;;;;6.20;4.45;;;28.80;60.70;;;;;;1822151;77;21164;-71
2021/11/25 05:01:28;;;;;;;6.37;4.58;;;28.90;61.20;;;;;;1859261;76;21259;-71
2021/11/25 05:03:59;;;;;;;5.97;4.75;;;29.00;60.60;;;;;;1850587;76;21087;-71
2021/11/25 05:06:29;;;;;;;9.10;4.90;;;29.00;60.40;;;;;;1813201;79;21703;-72
2021/11/25 05:09:00;;;;;;;8.68;5.08;;;29.00;60.60;;;;;;1812088;79;21205;-71
2021/11/25 05:11:31;;;;;;;7.03;5.45;;;29.10;60.40;;;;;;1794435;78;21184;-71
2021/11/25 05:14:02;;;;;;;9.88;5.00;;;29.10;60.80;;;;;;1800862;78;21138;-71
2021/11/25 05:16:34;;;;;;;9.43;5.35;;;29.10;60.70;;;;;;1810414;77;21229;-71
2021/11/25 05:19:06;;;;;;;6.30;4.78;;;29.00;60.50;;;;;;1815653;77;21613;-71
2021/11/25 05:21:37;;;;;;;9.83;5.05;;;29.10;60.70;;;;;;1862735;76;21238;-71
2021/11/25 05:24:07;;;;;;;8.23;5.50;;;29.10;60.60;;;;;;1814268;77;21643;-70
2021/11/25 05:26:39;;;;;;;11.00;4.60;;;29.10;60.70;;;;;;1812559;77;21172;-71
2021/11/25 05:29:09;;;;;;;10.08;6.00;;;29.20;61.70;;;;;;1866472;76;21140;-71
2021/11/25 05:31:40;;;;;;;8.45;5.67;;;29.30;60.40;;;;;;1858152;76;21608;-71
2021/11/25 05:34:12;;;;;;;8.30;5.10;;;29.30;60.60;;;;;;1850385;76;21143;-71
2021/11/25 05:36:44;;;;;;;12.82;7.03;;;29.30;60.10;;;;;;1841709;76;21769;-71
2021/11/25 05:39:15;;;;;;;8.90;4.97;;;29.40;60.10;;;;;;1842735;76;21139;-72
2021/11/25 05:41:47;;;;;;;9.38;5.00;;;29.40;60.20;;;;;;1840940;76;21254;-72
2021/11/25 05:44:18;;;;;;;7.45;5.00;;;29.40;60.30;;;;;;1854122;76;21140;-72
2021/11/25 05:46:49;;;;;;;9.60;5.78;;;29.40;60.40;;;;;;1838816;76;21178;-71
2021/11/25 05:49:23;;;;;;;7.60;4.97;;;29.50;60.40;;;;;;1834965;78;21636;-69
2021/11/25 05:51:57;;;;;;;8.43;5.47;;;29.50;59.70;;;;;;1842143;76;21135;-68
2021/11/25 05:54:31;;;;;;;;;;;29.60;59.70;;;;;;1845454;76;21179;-70
2021/11/25 05:57:02;;;;;;;9.73;5.58;;;29.60;60.20;;;;;;1840032;76;20233;-71
2021/11/25 05:59:32;;;;;;;7.75;5.58;;;29.70;59.90;;;;;;1824780;76;21250;-70
2021/11/25 06:02:03;;;;;;;6.55;4.78;;;29.70;59.90;;;;;;1840135;76;21178;-71
2021/11/25 06:04:35;;;;;;;10.38;6.08;;;29.70;59.10;;;;;;1833615;78;21175;-72
2021/11/25 06:07:06;;;;;;;9.38;5.42;;;29.70;59.00;;;;;;1837136;76;21139;-72
2021/11/25 06:09:38;;;;;;;8.88;5.55;;;29.60;59.20;;;;;;1828868;76;21080;-72
2021/11/25 06:12:09;;;;;;;8.10;5.03;;;29.60;59.40;;;;;;1820000;76;21166;-72
2021/11/25 06:14:40;;;;;;;8.33;5.10;;;29.60;59.80;;;;;;1835843;76;21150;-72
2021/11/25 06:17:11;;;;;;;10.28;5.85;;;29.70;59.60;;;;;;1783815;80;21693;-72
2021/11/25 06:19:42;;;;;;;13.32;7.37;;;29.70;59.10;;;;;;1792762;78;21169;-71
2021/11/25 06:22:12;;;;;;;11.75;6.67;;;29.80;59.40;;;;;;1797795;78;21151;-72
2021/11/25 06:24:43;;;;;;;7.47;5.28;;;29.90;59.70;;;;;;1762292;79;21166;-73
2021/11/25 06:27:14;;;;;;;8.83;5.45;;;29.90;59.50;;;;;;1782316;80;21147;-72
2021/11/25 06:29:44;;;;;;;14.73;10.32;;;29.90;59.00;;;;;;1770711;79;21168;-72
2021/11/25 06:32:16;;;;;;;9.50;6.30;;;30.00;58.90;;;;;;1780234;79;21198;-72
2021/11/25 06:34:46;;;;;;;9.23;5.10;;;30.00;58.80;;;;;;1807021;78;21646;-72
2021/11/25 06:37:18;;;;;;;8.08;4.97;;;30.00;58.70;;;;;;1803034;78;21113;-71
2021/11/25 06:39:49;;;;;;;7.55;5.05;;;30.00;58.50;;;;;;1805537;78;21127;-71
2021/11/25 06:42:20;;;;;;;8.90;5.10;;;30.00;58.70;;;;;;1778174;79;21509;-71
2021/11/25 06:44:51;;;;;;;7.75;4.85;;;30.10;59.10;;;;;;1767975;81;21664;-72
2021/11/25 06:47:22;;;;;;;10.00;5.12;;;30.10;59.10;;;;;;1797586;78;21151;-71
2021/11/25 06:49:53;;;;;;;10.00;4.75;;;30.20;59.00;;;;;;1859839;76;21583;-71
2021/11/25 06:52:24;;;;;;;6.12;4.80;;;30.30;58.80;;;;;;1800352;77;21276;-72
2021/11/25 06:54:55;;;;;;;8.00;5.05;;;30.30;58.70;;;;;;1820840;77;21191;-71
2021/11/25 06:57:29;;;;;;;8.35;5.40;;;30.30;58.60;;;;;;1819029;77;21890;-71
2021/11/25 07:00:09;;;;;;;7.22;5.05;;;30.20;58.40;;;;;;1820364;77;21195;-70
2021/11/25 07:03:09;;;;;;;;;;;;;;;;;;;;;
2021/11/25 07:05:34;;;;;;;7.45;5.22;;;30.20;58.60;;;;;;1703162;82;21171;-73
2021/11/25 07:08:07;;;;;;;8.50;4.80;;;30.20;58.50;;;;;;1705289;82;21257;-73
2021/11/25 07:10:40;;;;;;;7.05;5.08;;;30.20;58.40;;;;;;1703383;82;21284;-72
2021/11/25 07:13:11;;;;;;;8.90;4.87;;;30.20;58.50;;;;;;1687285;84;21251;-72
2021/11/25 07:15:42;;;;;;;7.70;4.78;;;30.20;58.70;;;;;;1676530;85;21680;-72
2021/11/25 07:18:13;;;;;;;7.83;4.83;;;30.20;58.80;;;;;;1679495;84;21679;-72
2021/11/25 07:20:44;;;;;;;8.55;5.28;;;30.20;58.60;;;;;;1703402;84;21590;-72
2021/11/25 07:23:15;;;;;;;7.70;5.10;;;30.20;58.70;;;;;;1684535;84;21282;-71
2021/11/25 07:25:47;;;;;;;9.13;4.87;;;30.20;58.60;;;;;;1715197;83;21217;-72
2021/11/25 07:28:19;;;;;;;7.97;5.03;;;30.10;58.70;;;;;;1711277;82;22141;-68
2021/11/25 07:30:50;;;;;;;6.03;4.42;;;30.10;58.90;;;;;;1680564;84;21911;-71
2021/11/25 07:33:21;;;;;;;8.85;5.30;;;30.10;58.70;;;;;;1707236;82;21193;-68
2021/11/25 07:35:52;;;;;;;6.40;4.33;;;30.10;58.60;;;;;;1677930;84;21331;-71
2021/11/25 07:38:23;;;;;;;7.53;4.60;;;30.00;58.60;;;;;;1716046;82;21723;-71
2021/11/25 07:40:53;;;;;;;7.50;4.25;;;30.00;58.70;;;;;;1767108;78;21160;-70
2021/11/25 07:43:24;;;;;;;5.75;4.25;;;29.90;58.60;;;;;;1818262;77;21166;-70
2021/11/25 07:45:56;;;;;;;6.55;4.30;;;29.90;58.90;;;;;;1815613;77;21129;-69
2021/11/25 07:48:27;;;;;;;7.53;4.37;;;29.90;59.20;;;;;;1806699;78;22276;-71
2021/11/25 07:50:59;;;;;;;10.63;4.60;;;29.80;59.20;;;;;;1808197;78;21231;-72
2021/11/25 07:53:32;;;;;;;10.18;4.75;;;29.80;59.30;;;;;;1778762;79;21211;-70
2021/11/25 07:56:05;;;;;;;8.63;4.05;;;29.80;58.90;;;;;;1818217;78;21613;-71
2021/11/25 07:58:35;;;;;;;10.00;7.08;;;29.70;59.10;;;;;;1802235;78;21210;-71
2021/11/25 08:01:09;;;;;;;7.33;5.55;;;29.70;59.10;;;;;;1812110;78;21420;-70
2021/11/25 08:03:42;;;;;;;10.20;5.47;;;29.70;58.90;;;;;;1771597;80;21164;-70
2021/11/25 08:06:13;;;;;;;5.20;4.33;;;29.70;59.30;;;;;;1773142;80;22066;-71
2021/11/25 08:08:46;;;;;;;9.75;4.80;;;29.70;59.40;;;;;;1778485;79;21606;-71
2021/11/25 08:11:17;;;;;;;6.97;4.00;;;29.70;59.70;;;;;;1803811;78;21196;-71
2021/11/25 08:13:48;;;;;;;7.75;4.85;;;29.70;59.70;;;;;;1777892;79;21143;-72
2021/11/25 08:16:19;;;;;;;6.33;4.60;;;29.70;59.90;;;;;;1798051;78;21168;-72
2021/11/25 08:18:50;;;;;;;9.18;4.60;;;29.70;59.50;;;;;;1814969;77;21733;-72
2021/11/25 08:21:22;;;;;;;11.38;5.17;;;29.60;59.80;;;;;;1771858;80;21796;-71
2021/11/25 08:23:53;;;;;;;5.42;3.95;;;29.60;59.90;;;;;;1779225;79;21157;-71
2021/11/25 08:26:24;;;;;;;6.53;4.20;;;29.60;60.10;;;;;;1784079;79;21276;-72
2021/11/25 08:28:55;;;;;;;8.55;4.50;;;29.60;59.90;;;;;;1784099;79;21245;-72
2021/11/25 08:31:27;;;;;;;5.65;4.12;;;29.60;59.60;;;;;;1771650;79;21183;-71
2021/11/25 08:33:57;;;;;;;6.47;4.50;;;29.60;59.70;;;;;;1781299;79;21212;-72
2021/11/25 08:36:28;;;;;;;8.45;4.37;;;29.60;60.00;;;;;;1772482;79;21190;-71
2021/11/25 08:38:59;;;;;;;6.20;4.12;;;29.60;59.70;;;;;;1792579;78;21144;-72
2021/11/25 08:41:30;;;;;;;7.28;4.60;;;29.60;59.90;;;;;;1773950;79;21279;-73
2021/11/25 08:44:01;;;;;;;6.85;4.70;;;29.50;59.80;;;;;;1777503;79;21689;-74
2021/11/25 08:46:32;;;;;;;5.83;4.45;;;29.50;60.30;;;;;;1775013;79;21235;-71
2021/11/25 08:49:04;;;;;;;7.40;4.55;;;29.50;59.80;;;;;;1786625;79;21141;-72
2021/11/25 08:51:35;;;;;;;6.65;4.50;;;29.50;59.90;;;;;;1789026;78;21147;-72
2021/11/25 08:54:06;;;;;;;10.75;5.05;;;29.50;59.90;;;;;;1845757;77;21621;-72
2021/11/25 08:56:37;;;;;;;8.85;4.97;;;29.50;60.00;;;;;;1848699;76;21143;-71
2021/11/25 08:59:08;;;;;;;6.45;4.70;;;29.50;59.90;;;;;;1853808;76;21116;-72
2021/11/25 09:01:39;;;;;;;8.45;4.67;;;29.50;60.10;;;;;;1847462;76;21220;-72
2021/11/25 09:04:10;;;;;;;6.83;4.30;;;29.50;59.90;;;;;;1845716;76;21697;-72
2021/11/25 09:06:40;;;;;;;9.35;4.72;;;29.50;59.70;;;;;;1848340;76;21134;-72
2021/11/25 09:09:12;;;;;;;8.03;4.87;;;29.60;59.80;;;;;;1846723;76;21140;-71
2021/11/25 09:11:44;;;;;;;6.58;4.83;;;29.60;59.70;;;;;;1851841;76;21598;-70
2021/11/25 09:14:16;;;;;;;7.00;4.67;;;29.50;59.70;;;;;;1844624;76;21158;-70
2021/11/25 09:16:47;;;;;;;7.12;4.50;;;29.50;59.80;;;;;;1847445;76;21160;-70
2021/11/25 09:19:18;;;;;;;8.48;5.35;;;29.50;60.10;;;;;;1843288;76;21597;-71
2021/11/25 09:21:49;;;;;;;13.98;7.47;;;29.40;60.30;;;;;;1829973;77;21215;-71
2021/11/25 09:24:21;;;;;;;9.03;5.17;;;29.40;61.10;;;;;;1836824;76;21602;-71
2021/11/25 09:26:52;;;;;;;9.43;4.97;;;29.40;60.10;;;;;;1849981;77;21131;-71
2021/11/25 09:29:22;;;;;;;8.13;5.00;;;29.30;60.20;;;;;;1834850;77;21758;-71
2021/11/25 09:31:53;;;;;;;7.37;4.37;;;29.30;60.10;;;;;;1852261;77;21147;-71
2021/11/25 09:34:24;;;;;;;7.05;4.03;;;29.30;60.40;;;;;;1846128;77;21048;-72
2021/11/25 09:36:56;;;;;;;7.83;4.28;;;29.30;60.40;;;;;;1847886;76;21184;-70
2021/11/25 09:39:27;;;;;;;6.87;4.28;;;29.20;61.40;;;;;;1845375;76;21243;-70
2021/11/25 09:41:59;;;;;;;6.47;4.03;;;29.20;60.90;;;;;;1761089;79;21637;-71
2021/11/25 09:44:30;;;;;;;7.65;5.17;;;29.10;61.10;;;;;;1766644;79;21137;-72
2021/11/25 09:47:02;;;;;;;6.78;4.55;;;29.10;61.40;;;;;;1787226;80;21158;-72
2021/11/25 09:49:33;;;;;;;5.33;4.15;;;29.10;61.30;;;;;;1809654;77;21679;-72
2021/11/25 09:52:04;;;;;;;8.75;4.62;;;29.10;61.50;;;;;;1820046;77;21151;-72
2021/11/25 09:54:35;;;;;;;6.72;4.70;;;29.00;61.40;;;;;;1808022;79;21110;-71
2021/11/25 09:57:05;;;;;;;6.97;4.30;;;29.00;61.80;;;;;;1815512;78;21149;-72
2021/11/25 09:59:39;;;;;;;8.93;5.00;;;29.00;62.20;;;;;;1805872;79;21223;-72
2021/11/25 10:02:10;;;;;;;7.97;4.75;;;28.90;62.30;;;;;;1810834;79;21192;-72
2021/11/25 10:04:41;;;;;;;8.58;5.03;;;28.90;62.40;;;;;;1817437;79;21063;-72
2021/11/25 10:07:14;;;;;;;10.40;5.15;;;28.90;62.70;;;;;;1817243;79;21215;-72
2021/11/25 10:09:44;;;;;;;10.15;4.95;;;28.90;62.90;;;;;;1814394;79;21126;-72
2021/11/25 10:12:18;;;;;;;9.55;5.60;;;28.80;63.00;;;;;;1817865;79;21166;-72
2021/11/25 10:14:51;;;;;;;14.03;8.20;;;28.80;63.20;;;;;;1812567;78;21295;-71
2021/11/25 10:17:24;;;;;;;12.25;7.42;;;28.80;63.40;;;;;;1818267;79;21479;-71
2021/11/25 10:19:57;;;;;;;11.00;6.60;;;28.70;63.50;;;;;;1815240;79;21178;-72
2021/11/25 10:22:28;;;;;;;14.15;6.65;;;28.70;63.70;;;;;;1823504;77;21162;-71
2021/11/25 10:25:01;;;;;;;9.20;6.22;;;28.60;63.80;;;;;;1817608;79;21185;-72
2021/11/25 10:27:30;;;;;;;13.08;7.47;;;28.60;63.90;;;;;;1818947;77;21188;-73
2021/11/25 10:30:03;;;;;;;12.43;6.45;;;28.60;64.10;;;;;;1813242;79;21237;-73
2021/11/25 10:32:34;;;;;;;12.45;6.83;;;28.50;64.30;;;;;;1813131;79;21113;-73
2021/11/25 10:35:11;;;;;;;12.93;7.17;;;28.50;64.60;;;;;;1804586;79;21098;-72
2021/11/25 10:37:58;;;;;;;9.53;7.17;;;28.50;64.80;;;;;;1812953;79;21624;-72
2021/11/25 10:40:16;;;;;;;14.18;7.35;;;28.50;65.00;;;;;;1815411;79;21187;-72
2021/11/25 10:42:48;;;;;;;12.03;7.05;;;28.40;65.00;;;;;;1815187;78;21205;-72
2021/11/25 10:45:21;;;;;;;8.78;6.05;;;28.40;65.00;;;;;;1816404;79;21216;-73
2021/11/25 10:47:54;;;;;;;11.48;6.80;;;28.30;65.00;;;;;;1818259;77;21177;-72
2021/11/25 10:50:26;;;;;;;11.20;7.03;;;28.30;65.10;;;;;;1842059;76;21227;-73
2021/11/25 10:52:59;;;;;;;13.72;8.68;;;28.30;65.00;;;;;;1847089;76;21256;-71
2021/11/25 10:55:30;;;;;;;14.03;8.90;;;28.20;65.00;;;;;;1842809;76;21410;-74
2021/11/25 10:58:02;;;;;;;16.30;9.45;;;28.20;65.10;;;;;;1836150;76;21236;-71
2021/11/25 11:00:36;;;;;;;16.62;9.10;;;28.20;65.30;;;;;;1851592;76;21780;-71
2021/11/25 11:03:10;;;;;;;12.58;9.45;;;28.10;65.30;;;;;;1840489;76;21137;-71
2021/11/25 11:05:43;;;;;;;19.37;9.55;;;28.20;65.50;;;;;;1846614;76;21111;-72
2021/11/25 11:08:16;;;;;;;21.55;10.18;;;28.10;65.60;;;;;;1834601;76;21638;-71
2021/11/25 11:10:49;;;;;;;21.52;10.18;;;28.10;65.60;;;;;;1843110;76;21086;-71
2021/11/25 11:16:09;;;;;;;17.23;9.85;;;28.10;65.90;;;;;;1843304;76;21244;-71
2021/11/25 11:21:02;;;;;;;14.40;9.73;;;28.00;66.30;;;;;;1835939;76;21145;-70
2021/11/25 11:23:33;;;;;;;21.17;11.15;;;28.00;66.50;;;;;;1836858;76;21131;-71
2021/11/25 11:26:05;;;;;;;17.15;10.45;;;28.00;66.70;;;;;;1836712;76;21138;-71
2021/11/25 11:28:38;;;;;;;18.52;11.83;;;27.90;66.70;;;;;;1839177;78;21657;-72
2021/11/25 11:31:08;;;;;;;17.50;11.55;;;27.90;67.00;;;;;;1847292;76;21135;-72
2021/11/25 11:33:40;;;;;;;25.45;11.00;;;27.90;67.10;;;;;;1847617;76;21138;-71
2021/11/25 11:36:12;;;;;;;17.02;11.33;;;27.90;67.40;;;;;;1843434;76;21232;-72
2021/11/25 11:38:45;;;;;;;22.48;12.58;;;27.80;67.50;;;;;;1839340;76;21099;-72
2021/11/25 11:41:17;;;;;;;26.87;12.65;;;27.80;67.90;;;;;;1840575;76;21174;-71
2021/11/25 11:43:48;;;;;;;22.48;15.43;;;27.80;67.90;;;;;;1845821;76;21155;-72
2021/11/25 11:46:19;;;;;;;23.60;14.80;;;27.80;68.00;;;;;;1841139;76;21168;-72
2021/11/25 11:48:53;;;;;;;21.87;13.53;;;27.80;68.30;;;;;;1842546;76;21550;-72
2021/11/25 11:51:25;;;;;;;22.82;15.13;;;27.80;68.30;;;;;;1850081;76;21133;-70
2021/11/25 11:54:02;;;;;;;33.10;14.75;;;27.70;68.60;;;;;;1848874;76;21149;-71
2021/11/25 11:56:34;;;;;;;26.05;12.82;;;27.70;68.70;;;;;;1850558;76;21176;-71
2021/11/25 11:59:09;;;;;;;25.30;14.00;;;27.70;68.70;;;;;;1841399;77;21541;-71
2021/11/25 12:01:40;;;;;;;25.75;14.25;;;27.70;69.10;;;;;;1853246;76;21166;-71
2021/11/25 12:04:11;;;;;;;58.20;16.87;;;27.60;68.90;;;;;;1843512;76;21835;-72
2021/11/25 12:06:42;;;;;;;28.30;12.82;;;27.60;69.00;;;;;;1848366;76;22235;-73
2021/11/25 12:09:20;;;;;;;28.17;13.93;;;27.60;69.00;;;;;;1845786;76;21139;-72
2021/11/25 12:11:59;;;;;;;26.70;13.20;;;27.60;69.20;;;;;;1860298;76;21326;-83
2021/11/25 12:14:34;;;;;;;26.12;13.22;;;27.60;70.20;;;;;;1849425;76;21143;-82
2021/11/25 12:17:12;;;;;;;26.77;14.93;;;27.50;69.40;;;;;;1853133;76;21166;-83
2021/11/25 12:19:45;;;;;;;23.57;14.25;;;27.50;69.60;;;;;;1845140;76;21574;-83
2021/11/25 12:22:17;;;;;;;23.62;14.35;;;27.50;69.70;;;;;;1834816;76;21219;-84
2021/11/25 12:24:53;;;;;;;;;;;27.50;70.00;;;;;;1851764;76;21130;-82
2021/11/25 12:27:36;;;;;;;24.25;13.80;;;27.40;69.50;;;;;;1849186;76;20243;-81
2021/11/25 12:30:01;;;;;;;25.80;13.45;;;27.40;70.20;;;;;;1844764;76;21170;-81
2021/11/25 12:32:44;;;;;;;21.30;13.50;;;27.40;70.30;;;;;;1846796;76;21168;-81
2021/11/25 12:35:09;;;;;;;22.75;14.33;;;27.40;70.30;;;;;;1844727;77;21138;-82
2021/11/25 12:37:41;;;;;;;25.68;14.35;;;27.30;70.40;;;;;;1861444;76;21717;-82
2021/11/25 12:40:14;;;;;;;28.45;14.95;;;27.30;70.60;;;;;;1848725;76;21147;-81
2021/11/25 12:42:48;;;;;;;22.95;14.55;;;27.30;70.70;;;;;;1844212;76;21190;-81
2021/11/25 12:45:25;;;;;;;27.22;15.93;;;27.30;70.90;;;;;;1851953;76;21139;-81
2021/11/25 12:47:55;;;;;;;25.37;15.50;;;27.30;70.90;;;;;;1849913;76;21949;-82
2021/11/25 12:50:35;;;;;;;31.10;16.90;;;27.20;70.80;;;;;;1838342;76;21223;-81
2021/11/25 12:53:06;;;;;;;30.08;18.02;;;27.20;71.30;;;;;;1847560;76;21155;-81
2021/11/25 12:55:38;;;;;;;27.60;17.82;;;27.20;71.90;;;;;;1854154;76;21127;-81
2021/11/25 12:58:13;;;;;;;35.73;19.07;;;27.20;71.80;;;;;;1846948;76;21142;-82
2021/11/25 13:00:46;;;;;;;35.23;20.75;;;27.10;72.00;;;;;;1846854;76;21241;-81
2021/11/25 13:03:22;;;;;;;38.33;21.37;;;27.10;72.70;;;;;;1846343;77;21147;-81
2021/11/25 13:05:56;;;;;;;35.48;19.23;;;27.00;72.70;;;;;;1837889;77;21063;-82
2021/11/25 13:08:37;;;;;;;33.13;19.27;;;27.00;72.90;;;;;;1835723;77;21260;-82
2021/11/25 13:11:01;;;;;;;30.60;19.48;;;27.00;73.20;;;;;;1849117;76;21261;-81
2021/11/25 13:13:34;;;;;;;31.07;19.37;;;26.90;73.70;;;;;;1847142;77;21724;-82